Time;durP1;ratioP1;P1;durP2;ratioP2;P2;SDS_P1;SDS_P2;PMS_P1;PMS_P2;Temp;Humidity;BMP_temperature;BMP_pressure;BME280_temperature;BME280_humidity;BME280_pressure;Samples;Min_cycle;Max_cycle;Signal;HPM_P1;HPM_P2
2023/08/02 00:00:55;;;;;;;0.00;0.00;;;16.90;99.90;;;;;;5092434;28;20207;-63
2023/08/02 00:03:21;;;;;;;0.00;0.00;;;16.80;99.90;;;;;;5092608;28;20172;-63
2023/08/02 00:05:58;;;;;;;0.00;0.00;;;16.80;99.90;;;;;;5092364;28;20187;-63
2023/08/02 00:08:25;;;;;;;0.00;0.00;;;16.80;99.90;;;;;;5092459;28;20538;-63
2023/08/02 00:10:51;;;;;;;0.00;0.00;;;16.80;99.90;;;;;;5091980;28;20180;-63
2023/08/02 00:13:17;;;;;;;0.00;0.00;;;16.80;99.90;;;;;;5092106;28;20188;-63
2023/08/02 00:15:43;;;;;;;0.00;0.00;;;16.70;99.90;;;;;;5092557;28;20185;-63
2023/08/02 00:18:08;;;;;;;0.00;0.00;;;16.70;99.90;;;;;;5091337;28;20180;-63
2023/08/02 00:20:36;;;;;;;0.00;0.00;;;16.60;99.90;;;;;;5092201;28;20233;-63
2023/08/02 00:23:02;;;;;;;0.00;0.00;;;16.60;99.90;;;;;;5091708;28;20176;-63
2023/08/02 00:25:27;;;;;;;0.00;0.00;;;16.50;99.90;;;;;;5092124;28;20184;-63
2023/08/02 00:27:53;;;;;;;0.00;0.00;;;16.50;99.90;;;;;;5091947;28;20235;-63
2023/08/02 00:30:18;;;;;;;0.00;0.00;;;16.40;99.90;;;;;;5091707;28;20176;-63
2023/08/02 00:32:48;;;;;;;0.10;0.10;;;16.40;99.90;;;;;;5091425;28;20528;-63
2023/08/02 00:35:14;;;;;;;0.00;0.00;;;16.40;99.90;;;;;;5091957;28;20184;-63
2023/08/02 00:37:40;;;;;;;0.00;0.00;;;16.40;99.90;;;;;;5092452;28;20180;-62
2023/08/02 00:40:07;;;;;;;0.00;0.00;;;16.40;99.90;;;;;;5080828;28;20223;-63
2023/08/02 00:42:32;;;;;;;0.00;0.00;;;16.40;99.90;;;;;;5091752;28;20213;-63
2023/08/02 00:44:58;;;;;;;0.00;0.00;;;16.40;99.90;;;;;;5091806;28;20336;-63
2023/08/02 00:47:24;;;;;;;0.00;0.00;;;16.40;99.90;;;;;;5091209;28;20184;-63
2023/08/02 00:49:50;;;;;;;0.03;0.03;;;16.40;99.90;;;;;;5091807;28;20172;-63
2023/08/02 00:52:16;;;;;;;0.00;0.00;;;16.50;99.90;;;;;;5091191;28;20182;-63
2023/08/02 00:54:41;;;;;;;0.00;0.00;;;16.40;99.90;;;;;;5092233;28;20176;-63
2023/08/02 00:57:09;;;;;;;0.10;0.10;;;16.50;99.90;;;;;;5091978;28;20180;-63
2023/08/02 00:59:40;;;;;;;0.10;0.10;;;16.40;99.90;;;;;;5092154;28;20223;-63
2023/08/02 01:02:06;;;;;;;0.00;0.00;;;16.40;99.90;;;;;;5091715;28;20199;-63
2023/08/02 01:04:36;;;;;;;0.00;0.00;;;16.40;99.90;;;;;;5092113;28;20191;-62
2023/08/02 01:07:29;;;;;;;0.00;0.00;;;16.40;99.90;;;;;;5091864;28;20558;-63
2023/08/02 01:10:09;;;;;;;0.00;0.00;;;16.40;99.90;;;;;;5092036;28;20164;-63
2023/08/02 01:12:35;;;;;;;0.00;0.00;;;16.40;99.90;;;;;;5091953;28;20744;-63
2023/08/02 01:15:03;;;;;;;0.00;0.00;;;16.40;99.90;;;;;;5091781;28;20260;-63
2023/08/02 01:17:30;;;;;;;0.22;0.22;;;16.40;99.90;;;;;;5091963;28;20289;-63
2023/08/02 01:20:05;;;;;;;0.00;0.00;;;16.30;99.90;;;;;;5091729;28;20212;-63
2023/08/02 01:22:31;;;;;;;0.00;0.00;;;16.30;99.90;;;;;;5091727;28;20178;-63
2023/08/02 01:24:59;;;;;;;0.00;0.00;;;16.30;99.90;;;;;;5091857;28;20251;-63
2023/08/02 01:27:32;;;;;;;0.00;0.00;;;16.30;99.90;;;;;;5091249;28;20605;-63
2023/08/02 01:29:59;;;;;;;0.00;0.00;;;16.30;99.90;;;;;;5091465;28;20195;-63
2023/08/02 01:32:25;;;;;;;0.00;0.00;;;16.30;99.90;;;;;;5088498;28;20184;-63
2023/08/02 01:34:51;;;;;;;0.00;0.00;;;16.30;99.90;;;;;;5071428;28;20181;-63
2023/08/02 01:37:17;;;;;;;0.00;0.00;;;16.30;99.90;;;;;;5076718;28;20184;-63
2023/08/02 01:39:43;;;;;;;0.00;0.00;;;16.30;99.90;;;;;;5087560;28;20269;-63
2023/08/02 01:42:10;;;;;;;0.00;0.00;;;16.30;99.90;;;;;;5072343;28;20176;-63
2023/08/02 01:44:35;;;;;;;0.00;0.00;;;16.30;99.90;;;;;;5097289;28;20171;-62
2023/08/02 01:47:01;;;;;;;0.00;0.00;;;16.30;99.90;;;;;;5098137;28;20189;-63
2023/08/02 01:49:27;;;;;;;0.00;0.00;;;16.30;99.90;;;;;;5098024;28;20538;-63
2023/08/02 01:51:52;;;;;;;0.00;0.00;;;16.30;99.90;;;;;;5097018;28;20222;-63
2023/08/02 01:54:18;;;;;;;0.00;0.00;;;16.30;99.90;;;;;;5096202;28;20180;-63
2023/08/02 01:56:43;;;;;;;0.00;0.00;;;16.30;99.90;;;;;;5097765;28;20191;-63
2023/08/02 01:59:11;;;;;;;0.00;0.00;;;16.30;99.90;;;;;;5097636;28;20207;-63
2023/08/02 02:01:37;;;;;;;0.00;0.00;;;16.30;99.90;;;;;;5081559;28;20180;-63
2023/08/02 02:04:03;;;;;;;0.00;0.00;;;16.30;99.90;;;;;;5097787;28;20242;-63
2023/08/02 02:06:28;;;;;;;0.00;0.00;;;16.30;99.90;;;;;;5097419;28;20259;-63
2023/08/02 02:08:54;;;;;;;0.00;0.00;;;16.30;99.90;;;;;;5098072;28;20262;-63
2023/08/02 02:11:19;;;;;;;0.10;0.10;;;16.30;99.90;;;;;;5097943;28;20180;-63
2023/08/02 02:13:45;;;;;;;0.00;0.00;;;16.30;99.90;;;;;;5098010;28;20247;-63
2023/08/02 02:16:10;;;;;;;0.00;0.00;;;16.20;99.90;;;;;;5097656;28;20180;-63
2023/08/02 02:18:36;;;;;;;0.00;0.00;;;16.20;99.90;;;;;;5097960;28;20730;-63
2023/08/02 02:21:01;;;;;;;0.00;0.00;;;16.20;99.90;;;;;;5097713;28;20298;-63
2023/08/02 02:23:27;;;;;;;0.00;0.00;;;16.20;99.90;;;;;;5098005;28;20530;-63
2023/08/02 02:25:52;;;;;;;0.00;0.00;;;16.10;99.90;;;;;;5097943;28;20247;-63
2023/08/02 02:28:19;;;;;;;0.00;0.00;;;16.20;99.90;;;;;;5097474;28;20224;-63
2023/08/02 02:30:44;;;;;;;0.00;0.00;;;16.20;99.90;;;;;;5097851;28;20160;-63
2023/08/02 02:33:10;;;;;;;0.00;0.00;;;16.20;99.90;;;;;;5097714;28;20225;-63
2023/08/02 02:35:36;;;;;;;0.00;0.00;;;16.20;99.90;;;;;;5096671;28;20543;-63
2023/08/02 02:38:01;;;;;;;0.00;0.00;;;16.20;99.90;;;;;;5091120;28;20183;-63
2023/08/02 02:40:27;;;;;;;0.00;0.00;;;16.30;99.90;;;;;;5086071;28;20702;-63
2023/08/02 02:42:52;;;;;;;0.00;0.00;;;16.30;99.90;;;;;;5087925;28;20184;-63
2023/08/02 02:45:18;;;;;;;0.00;0.00;;;16.30;99.90;;;;;;5092824;28;20196;-63
2023/08/02 02:47:43;;;;;;;0.00;0.00;;;16.30;99.90;;;;;;5077363;28;20180;-63
2023/08/02 02:50:09;;;;;;;1.58;0.15;;;16.40;99.90;;;;;;5077208;28;20196;-63
2023/08/02 02:52:34;;;;;;;0.00;0.00;;;16.40;99.90;;;;;;5077346;28;20179;-63
2023/08/02 02:55:00;;;;;;;0.00;0.00;;;16.40;99.90;;;;;;5077227;28;20230;-63
2023/08/02 02:57:25;;;;;;;0.00;0.00;;;16.40;99.90;;;;;;5094367;28;20218;-63
2023/08/02 02:59:51;;;;;;;0.00;0.00;;;16.50;99.90;;;;;;5094391;28;20245;-63
2023/08/02 03:02:17;;;;;;;0.00;0.00;;;16.50;99.90;;;;;;5094195;28;20222;-63
2023/08/02 03:04:43;;;;;;;0.00;0.00;;;16.50;99.90;;;;;;5094330;28;20744;-63
2023/08/02 03:07:08;;;;;;;0.00;0.00;;;16.50;99.90;;;;;;5092974;28;20259;-63
2023/08/02 03:09:34;;;;;;;0.00;0.00;;;16.60;99.90;;;;;;5093960;28;20181;-63
2023/08/02 03:11:59;;;;;;;0.00;0.00;;;16.60;99.90;;;;;;5093882;28;20254;-63
2023/08/02 03:14:25;;;;;;;0.00;0.00;;;16.60;99.90;;;;;;5093444;28;20214;-63
2023/08/02 03:16:50;;;;;;;0.00;0.00;;;16.60;99.90;;;;;;5093924;28;20715;-63
2023/08/02 03:19:16;;;;;;;0.00;0.00;;;16.70;99.90;;;;;;5093322;28;20200;-64
2023/08/02 03:21:43;;;;;;;0.00;0.00;;;16.70;99.90;;;;;;5091566;28;20180;-63
2023/08/02 03:24:09;;;;;;;0.00;0.00;;;16.70;99.90;;;;;;5093531;28;20187;-63
2023/08/02 03:26:34;;;;;;;0.10;0.10;;;16.70;99.90;;;;;;5093665;28;20176;-63
2023/08/02 03:29:00;;;;;;;0.00;0.00;;;16.80;99.90;;;;;;5093320;28;20496;-63
2023/08/02 03:31:25;;;;;;;0.00;0.00;;;16.80;99.90;;;;;;5093636;28;20188;-63
2023/08/02 03:33:51;;;;;;;0.00;0.00;;;16.80;99.90;;;;;;5093489;28;20175;-63
2023/08/02 03:36:16;;;;;;;0.00;0.00;;;16.80;99.90;;;;;;5093631;28;20180;-63
2023/08/02 03:38:42;;;;;;;0.00;0.00;;;16.90;99.90;;;;;;5093281;28;20225;-63
2023/08/02 03:41:08;;;;;;;0.10;0.10;;;16.90;99.90;;;;;;5077572;28;20189;-64
2023/08/02 03:43:33;;;;;;;0.00;0.00;;;16.90;99.90;;;;;;5102018;28;20658;-63
2023/08/02 03:45:59;;;;;;;0.00;0.00;;;17.00;99.90;;;;;;5102784;28;20184;-62
2023/08/02 03:48:28;;;;;;;0.00;0.00;;;17.00;99.90;;;;;;5092964;28;20267;-63
2023/08/02 03:50:54;;;;;;;0.00;0.00;;;17.10;99.90;;;;;;5085654;28;20188;-63
2023/08/02 03:53:20;;;;;;;0.00;0.00;;;17.10;99.90;;;;;;5092867;28;20188;-63
2023/08/02 03:55:45;;;;;;;0.00;0.00;;;17.20;99.90;;;;;;5093127;28;20187;-62
2023/08/02 03:58:11;;;;;;;0.00;0.00;;;17.20;99.90;;;;;;5091496;28;20188;-62
2023/08/02 04:00:37;;;;;;;0.00;0.00;;;17.20;99.90;;;;;;5091496;28;20207;-65
2023/08/02 04:03:02;;;;;;;0.00;0.00;;;17.20;99.90;;;;;;5091687;28;20176;-68
2023/08/02 04:05:28;;;;;;;0.00;0.00;;;17.30;99.90;;;;;;5092378;28;20186;-67
2023/08/02 04:07:53;;;;;;;0.00;0.00;;;17.30;99.90;;;;;;5092051;28;20208;-67
2023/08/02 04:10:19;;;;;;;0.00;0.00;;;17.30;99.90;;;;;;5092808;28;20190;-68
2023/08/02 04:12:44;;;;;;;0.00;0.00;;;17.30;99.90;;;;;;5092378;28;20176;-67
2023/08/02 04:15:10;;;;;;;0.00;0.00;;;17.30;99.90;;;;;;5091281;28;20176;-65
2023/08/02 04:17:36;;;;;;;0.00;0.00;;;17.30;99.90;;;;;;5082686;28;20172;-65
2023/08/02 04:20:01;;;;;;;0.00;0.00;;;17.30;99.90;;;;;;5092819;28;20211;-65
2023/08/02 04:22:30;;;;;;;0.00;0.00;;;17.30;99.90;;;;;;5092425;28;20639;-65
2023/08/02 04:24:55;;;;;;;0.00;0.00;;;17.30;99.90;;;;;;5092779;28;20204;-65
2023/08/02 04:27:21;;;;;;;0.00;0.00;;;17.30;99.90;;;;;;5092511;28;20567;-64
2023/08/02 04:29:48;;;;;;;0.00;0.00;;;17.40;99.90;;;;;;5092564;28;20186;-65
2023/08/02 04:32:13;;;;;;;0.00;0.00;;;17.30;99.90;;;;;;5092618;28;20187;-65
2023/08/02 04:34:39;;;;;;;0.00;0.00;;;17.30;99.90;;;;;;5092713;28;20538;-64
2023/08/02 04:37:04;;;;;;;0.00;0.00;;;17.30;99.90;;;;;;5092344;28;20180;-64
2023/08/02 04:39:30;;;;;;;0.00;0.00;;;17.30;99.90;;;;;;5091919;28;20211;-65
2023/08/02 04:41:57;;;;;;;0.00;0.00;;;17.30;99.90;;;;;;5092205;28;20541;-65
2023/08/02 04:44:23;;;;;;;0.00;0.00;;;17.30;99.90;;;;;;5091937;28;20168;-64
2023/08/02 04:46:48;;;;;;;0.00;0.00;;;17.20;99.90;;;;;;5091973;28;20683;-64
2023/08/02 04:49:14;;;;;;;0.00;0.00;;;17.20;99.90;;;;;;5083395;28;20185;-64
2023/08/02 04:51:39;;;;;;;0.00;0.00;;;17.10;99.90;;;;;;5071616;28;20188;-65
2023/08/02 04:54:05;;;;;;;0.00;0.00;;;17.00;99.90;;;;;;5071317;28;20242;-64
2023/08/02 04:56:31;;;;;;;0.30;0.30;;;17.00;99.90;;;;;;5071370;28;20212;-64
2023/08/02 04:58:56;;;;;;;0.00;0.00;;;16.90;99.90;;;;;;5070187;28;20173;-64
2023/08/02 05:01:22;;;;;;;0.00;0.00;;;16.90;99.90;;;;;;5071205;28;20184;-64
2023/08/02 05:03:47;;;;;;;0.00;0.00;;;16.80;99.90;;;;;;5071288;28;20177;-64
2023/08/02 05:06:13;;;;;;;0.00;0.00;;;16.80;99.90;;;;;;5071260;28;20204;-65
2023/08/02 05:08:39;;;;;;;0.00;0.00;;;16.70;99.90;;;;;;5071278;28;20218;-65
2023/08/02 05:11:08;;;;;;;0.00;0.00;;;16.70;99.90;;;;;;5071061;28;20177;-65
2023/08/02 05:13:34;;;;;;;0.55;0.10;;;16.70;99.90;;;;;;5071334;28;20168;-64
2023/08/02 05:16:00;;;;;;;0.00;0.00;;;16.70;99.90;;;;;;5071145;28;20173;-64
2023/08/02 05:18:26;;;;;;;0.00;0.00;;;16.60;99.90;;;;;;5069146;28;20191;-64
2023/08/02 05:20:52;;;;;;;0.00;0.00;;;16.60;99.90;;;;;;5071161;28;20236;-64
2023/08/02 05:23:18;;;;;;;0.00;0.00;;;16.50;99.90;;;;;;5069404;28;20222;-64
2023/08/02 05:25:43;;;;;;;0.00;0.00;;;16.50;99.90;;;;;;5070980;28;20177;-64
2023/08/02 05:28:09;;;;;;;0.00;0.00;;;16.40;99.90;;;;;;5070520;28;20589;-64
2023/08/02 05:30:36;;;;;;;0.00;0.00;;;16.50;99.90;;;;;;5071040;28;20249;-64
2023/08/02 05:33:03;;;;;;;0.00;0.00;;;16.50;99.90;;;;;;5069413;28;20195;-64
2023/08/02 05:35:29;;;;;;;0.10;0.10;;;16.50;99.90;;;;;;5070839;28;20272;-64
2023/08/02 05:37:55;;;;;;;0.00;0.00;;;16.50;99.90;;;;;;5070817;28;20168;-64
2023/08/02 05:40:21;;;;;;;0.00;0.00;;;16.50;99.90;;;;;;5079864;28;20215;-64
2023/08/02 05:42:48;;;;;;;0.00;0.00;;;16.50;99.90;;;;;;5090810;28;20176;-64
2023/08/02 05:45:13;;;;;;;0.00;0.00;;;16.50;99.90;;;;;;5090891;28;20184;-64
2023/08/02 05:47:39;;;;;;;0.00;0.00;;;16.50;99.90;;;;;;5091061;28;20263;-64
2023/08/02 05:50:05;;;;;;;0.00;0.00;;;16.50;99.90;;;;;;5084117;28;20177;-65
2023/08/02 05:52:30;;;;;;;0.00;0.00;;;16.50;99.90;;;;;;5073915;28;20232;-65
2023/08/02 05:54:56;;;;;;;0.00;0.00;;;16.50;99.90;;;;;;5091153;28;20180;-65
2023/08/02 05:57:21;;;;;;;0.00;0.00;;;16.50;99.90;;;;;;5091144;28;20168;-65
2023/08/02 05:59:50;;;;;;;0.63;0.30;;;16.50;99.90;;;;;;5091095;28;20207;-64
2023/08/02 06:02:16;;;;;;;0.00;0.00;;;16.40;99.90;;;;;;5091039;28;20233;-64
2023/08/02 06:04:44;;;;;;;0.00;0.00;;;16.40;99.90;;;;;;5091069;28;20176;-65
2023/08/02 06:07:10;;;;;;;0.20;0.10;;;16.40;99.90;;;;;;5090997;28;20250;-64
2023/08/02 06:09:35;;;;;;;0.00;0.00;;;16.40;99.90;;;;;;5091054;28;20215;-65
2023/08/02 06:12:02;;;;;;;0.00;0.00;;;16.40;99.90;;;;;;5091075;28;20172;-65
2023/08/02 06:14:27;;;;;;;0.00;0.00;;;16.40;99.90;;;;;;5090799;28;20281;-65
2023/08/02 06:16:53;;;;;;;0.00;0.00;;;16.50;99.90;;;;;;5090882;28;20655;-65
2023/08/02 06:19:18;;;;;;;0.00;0.00;;;16.50;99.90;;;;;;5090753;28;20192;-65
2023/08/02 06:21:44;;;;;;;0.00;0.00;;;16.50;99.90;;;;;;5090855;28;20256;-65
2023/08/02 06:24:09;;;;;;;0.00;0.00;;;16.60;99.90;;;;;;5090418;28;20242;-65
2023/08/02 06:26:35;;;;;;;0.00;0.00;;;16.50;99.90;;;;;;5090939;28;20172;-65
2023/08/02 06:29:01;;;;;;;0.00;0.00;;;16.50;99.90;;;;;;5090589;28;20281;-65
2023/08/02 06:31:26;;;;;;;0.00;0.00;;;16.50;99.90;;;;;;5093610;28;20180;-65
2023/08/02 06:33:52;;;;;;;0.00;0.00;;;16.60;99.90;;;;;;5094724;28;20167;-65
2023/08/02 06:36:18;;;;;;;0.00;0.00;;;16.60;99.90;;;;;;5094557;28;20256;-65
2023/08/02 06:38:45;;;;;;;0.00;0.00;;;16.70;99.90;;;;;;5094633;28;20195;-65
2023/08/02 06:41:11;;;;;;;0.00;0.00;;;16.70;99.90;;;;;;5077940;28;20204;-65
2023/08/02 06:43:36;;;;;;;0.00;0.00;;;16.70;99.90;;;;;;5074224;28;20177;-65
2023/08/02 06:46:02;;;;;;;0.00;0.00;;;16.80;99.90;;;;;;5074003;28;20180;-65
2023/08/02 06:48:28;;;;;;;0.03;0.03;;;17.00;99.90;;;;;;5073936;28;20628;-65
2023/08/02 06:50:53;;;;;;;0.00;0.00;;;17.10;99.90;;;;;;5083829;28;20184;-65
2023/08/02 06:53:19;;;;;;;0.00;0.00;;;17.10;99.90;;;;;;5093956;28;20179;-65
2023/08/02 06:55:45;;;;;;;0.00;0.00;;;17.20;99.90;;;;;;5094293;28;20259;-65
2023/08/02 06:58:11;;;;;;;0.00;0.00;;;17.20;99.90;;;;;;5094077;28;20183;-65
2023/08/02 07:00:36;;;;;;;0.00;0.00;;;17.30;99.90;;;;;;5094250;28;20659;-65
2023/08/02 07:03:03;;;;;;;0.00;0.00;;;17.40;99.90;;;;;;5094153;28;20175;-65
2023/08/02 07:05:30;;;;;;;0.00;0.00;;;17.50;99.90;;;;;;5093926;28;20176;-65
2023/08/02 07:07:56;;;;;;;0.00;0.00;;;17.60;99.90;;;;;;5093977;28;20171;-65
2023/08/02 07:10:23;;;;;;;0.00;0.00;;;17.60;99.90;;;;;;5093938;28;20258;-65
2023/08/02 07:12:49;;;;;;;0.00;0.00;;;17.70;99.90;;;;;;5092732;28;20274;-65
2023/08/02 07:15:15;;;;;;;0.00;0.00;;;17.70;99.90;;;;;;5092598;28;20200;-65
2023/08/02 07:17:41;;;;;;;0.00;0.00;;;17.70;99.90;;;;;;5093991;28;20702;-65
2023/08/02 07:20:07;;;;;;;0.00;0.00;;;17.80;99.90;;;;;;5093599;28;20216;-65
2023/08/02 07:22:33;;;;;;;0.00;0.00;;;17.90;99.90;;;;;;5093764;28;20175;-65
2023/08/02 07:24:59;;;;;;;0.00;0.00;;;17.90;99.90;;;;;;5093757;28;20564;-65
2023/08/02 07:27:24;;;;;;;0.00;0.00;;;17.90;99.90;;;;;;5093105;28;20183;-65
2023/08/02 07:29:52;;;;;;;0.00;0.00;;;17.90;99.90;;;;;;5093777;28;20214;-65
2023/08/02 07:32:18;;;;;;;0.00;0.00;;;18.00;99.90;;;;;;5093657;28;20222;-65
2023/08/02 07:34:43;;;;;;;0.13;0.13;;;18.10;99.90;;;;;;5092378;28;20575;-65
2023/08/02 07:37:09;;;;;;;0.00;0.00;;;18.10;99.90;;;;;;5093348;28;20176;-65
2023/08/02 07:39:34;;;;;;;0.00;0.00;;;18.00;99.90;;;;;;5090415;28;20666;-65
2023/08/02 07:42:00;;;;;;;0.00;0.00;;;17.90;99.90;;;;;;5072590;28;20177;-65
2023/08/02 07:44:25;;;;;;;0.00;0.00;;;17.80;99.90;;;;;;5073059;28;20628;-65
2023/08/02 07:46:51;;;;;;;0.00;0.00;;;17.80;99.90;;;;;;5073148;28;20188;-65
2023/08/02 07:49:17;;;;;;;0.00;0.00;;;17.70;99.90;;;;;;5073075;28;20222;-65
2023/08/02 07:51:42;;;;;;;0.00;0.00;;;17.60;99.90;;;;;;5089546;28;20234;-64
2023/08/02 07:54:08;;;;;;;0.00;0.00;;;17.60;99.90;;;;;;5093109;28;20224;-64
2023/08/02 07:56:33;;;;;;;0.00;0.00;;;17.70;99.90;;;;;;5093211;28;20172;-65
2023/08/02 07:58:59;;;;;;;0.00;0.00;;;17.70;99.90;;;;;;5092951;28;20263;-65
2023/08/02 08:01:24;;;;;;;0.00;0.00;;;17.70;99.90;;;;;;5092864;28;20172;-65
2023/08/02 08:03:50;;;;;;;0.00;0.00;;;17.70;99.90;;;;;;5092857;28;20168;-65
2023/08/02 08:06:20;;;;;;;0.00;0.00;;;17.70;99.90;;;;;;5092926;28;20559;-65
2023/08/02 08:08:46;;;;;;;0.00;0.00;;;17.60;99.90;;;;;;5092687;28;20184;-64
2023/08/02 08:11:13;;;;;;;0.00;0.00;;;17.60;99.90;;;;;;5092813;28;20181;-65
2023/08/02 08:13:38;;;;;;;0.00;0.00;;;17.70;99.90;;;;;;5092827;28;20176;-65
2023/08/02 08:16:04;;;;;;;0.00;0.00;;;17.70;99.90;;;;;;5092594;28;20182;-65
2023/08/02 08:18:31;;;;;;;0.05;0.05;;;17.80;99.90;;;;;;5092568;28;20177;-65
2023/08/02 08:20:57;;;;;;;0.00;0.00;;;17.80;99.90;;;;;;5092498;28;20211;-65
2023/08/02 08:23:23;;;;;;;0.00;0.00;;;17.80;99.90;;;;;;5092529;28;20773;-65
2023/08/02 08:25:48;;;;;;;0.00;0.00;;;17.90;99.90;;;;;;5092594;28;20202;-65
2023/08/02 08:28:14;;;;;;;0.00;0.00;;;17.90;99.90;;;;;;5092328;28;20568;-65
2023/08/02 08:30:40;;;;;;;0.00;0.00;;;18.00;99.90;;;;;;5092588;28;20172;-65
2023/08/02 08:33:05;;;;;;;0.00;0.00;;;18.10;99.90;;;;;;5092294;28;20184;-65
2023/08/02 08:35:34;;;;;;;0.00;0.00;;;18.00;99.90;;;;;;5092425;28;20263;-65
2023/08/02 08:37:59;;;;;;;0.00;0.00;;;18.00;99.90;;;;;;5092476;28;20183;-65
2023/08/02 08:40:25;;;;;;;0.00;0.00;;;18.00;99.90;;;;;;5082145;28;20216;-65
2023/08/02 08:42:53;;;;;;;0.00;0.00;;;18.00;99.90;;;;;;5072132;28;20200;-65
2023/08/02 08:45:20;;;;;;;0.00;0.00;;;18.00;99.90;;;;;;5071975;28;20264;-65
2023/08/02 08:47:47;;;;;;;0.00;0.00;;;18.00;99.90;;;;;;5071708;28;20204;-65
2023/08/02 08:50:13;;;;;;;0.00;0.00;;;18.00;99.90;;;;;;5075764;28;20693;-65
2023/08/02 08:52:40;;;;;;;0.00;0.00;;;18.00;99.90;;;;;;5091492;28;20203;-65
2023/08/02 08:55:11;;;;;;;0.00;0.00;;;18.00;99.90;;;;;;5091987;28;20191;-65
2023/08/02 08:57:37;;;;;;;0.00;0.00;;;18.10;99.90;;;;;;5092101;28;20179;-65
2023/08/02 09:00:05;;;;;;;0.00;0.00;;;18.10;99.90;;;;;;5105444;28;20218;-65
2023/08/02 09:02:32;;;;;;;0.00;0.00;;;18.10;99.90;;;;;;5088028;28;20220;-65
2023/08/02 09:05:00;;;;;;;0.00;0.00;;;18.10;99.90;;;;;;5071680;28;20497;-65
2023/08/02 09:07:26;;;;;;;0.00;0.00;;;18.00;99.90;;;;;;5069831;28;20185;-65
2023/08/02 09:09:51;;;;;;;0.00;0.00;;;18.00;99.90;;;;;;5071663;28;20181;-65
2023/08/02 09:12:16;;;;;;;0.00;0.00;;;18.00;99.90;;;;;;5071645;28;20269;-65
2023/08/02 09:15:00;;;;;;;0.00;0.00;;;18.10;99.90;;;;;;5071670;28;20559;-65
2023/08/02 09:17:26;;;;;;;0.00;0.00;;;18.30;99.90;;;;;;5071352;28;20636;-65
2023/08/02 09:20:09;;;;;;;0.00;0.00;;;18.50;99.90;;;;;;5070200;28;20212;-65
2023/08/02 09:22:35;;;;;;;0.00;0.00;;;18.80;99.90;;;;;;5070407;28;20204;-65
2023/08/02 09:25:03;;;;;;;0.00;0.00;;;18.90;99.90;;;;;;5071515;28;20181;-65
2023/08/02 09:27:30;;;;;;;0.00;0.00;;;19.20;99.90;;;;;;5071192;28;20184;-65
2023/08/02 09:29:56;;;;;;;0.00;0.00;;;19.40;99.90;;;;;;5070211;28;20545;-65
2023/08/02 09:32:24;;;;;;;0.00;0.00;;;19.60;99.90;;;;;;5071327;28;20268;-65
2023/08/02 09:34:50;;;;;;;0.00;0.00;;;19.70;99.90;;;;;;5071465;28;20268;-65
2023/08/02 09:37:26;;;;;;;0.00;0.00;;;19.70;99.90;;;;;;5071184;28;20177;-65
2023/08/02 09:39:52;;;;;;;0.00;0.00;;;19.60;99.90;;;;;;5076490;28;20230;-65
2023/08/02 09:42:23;;;;;;;0.00;0.00;;;19.60;99.90;;;;;;5091368;28;20628;-65
2023/08/02 09:45:00;;;;;;;0.00;0.00;;;19.50;99.90;;;;;;5091523;28;20165;-65
2023/08/02 09:47:27;;;;;;;0.00;0.00;;;19.40;99.90;;;;;;5091265;28;20172;-65
2023/08/02 09:50:10;;;;;;;0.00;0.00;;;19.20;99.90;;;;;;5091427;28;20168;-65
2023/08/02 09:52:37;;;;;;;0.00;0.00;;;19.20;99.90;;;;;;5091392;28;20172;-65
2023/08/02 09:55:03;;;;;;;0.00;0.00;;;19.10;99.90;;;;;;5091310;28;20180;-65
2023/08/02 09:57:30;;;;;;;0.00;0.00;;;19.10;99.90;;;;;;5091172;28;20187;-65
2023/08/02 10:00:02;;;;;;;0.00;0.00;;;19.10;99.90;;;;;;5091224;28;20718;-65
2023/08/02 10:02:29;;;;;;;0.00;0.00;;;19.10;99.90;;;;;;5088930;28;20183;-65
2023/08/02 10:04:56;;;;;;;0.00;0.00;;;19.30;99.90;;;;;;5093275;28;20308;-65
2023/08/02 10:07:45;;;;;;;0.00;0.00;;;19.60;99.90;;;;;;5089192;28;20537;-65
2023/08/02 10:10:18;;;;;;;0.00;0.00;;;19.90;99.90;;;;;;5092745;28;20270;-65
2023/08/02 10:12:51;;;;;;;0.00;0.00;;;20.20;99.90;;;;;;5076599;28;20227;-65
2023/08/02 10:15:17;;;;;;;0.00;0.00;;;20.40;99.90;;;;;;5095243;28;20164;-65
2023/08/02 10:17:44;;;;;;;0.00;0.00;;;20.40;99.90;;;;;;5095202;28;20221;-65
2023/08/02 10:20:12;;;;;;;0.00;0.00;;;20.30;99.90;;;;;;5095035;28;20204;-65
2023/08/02 10:22:40;;;;;;;0.00;0.00;;;20.20;99.90;;;;;;5095201;28;20271;-65
2023/08/02 10:25:06;;;;;;;0.00;0.00;;;20.20;99.90;;;;;;5094872;28;20251;-65
2023/08/02 10:27:33;;;;;;;0.00;0.00;;;20.20;99.90;;;;;;5094939;28;20172;-65
2023/08/02 10:29:59;;;;;;;0.00;0.00;;;20.30;99.90;;;;;;5094998;28;20179;-65
2023/08/02 10:32:25;;;;;;;0.00;0.00;;;20.30;99.90;;;;;;5094759;28;20229;-65
2023/08/02 10:34:51;;;;;;;0.00;0.00;;;20.30;99.90;;;;;;5094785;28;20179;-65
2023/08/02 10:37:19;;;;;;;0.00;0.00;;;20.20;99.90;;;;;;5094791;28;20191;-65
2023/08/02 10:39:45;;;;;;;0.00;0.00;;;20.20;99.90;;;;;;5090070;28;20204;-65
2023/08/02 10:42:14;;;;;;;0.00;0.00;;;20.10;99.90;;;;;;5074320;28;20172;-65
2023/08/02 10:44:55;;;;;;;0.00;0.00;;;20.00;99.90;;;;;;5074416;28;20268;-65
2023/08/02 10:47:32;;;;;;;0.00;0.00;;;20.00;99.90;;;;;;5074256;28;20654;-65
2023/08/02 10:49:58;;;;;;;0.00;0.00;;;20.00;99.90;;;;;;5074327;28;20188;-65
2023/08/02 10:52:25;;;;;;;0.00;0.00;;;19.90;99.90;;;;;;5074095;28;20218;-65
2023/08/02 10:55:16;;;;;;;0.00;0.00;;;19.90;99.90;;;;;;5074225;28;20667;-65
2023/08/02 10:57:54;;;;;;;0.00;0.00;;;19.90;99.90;;;;;;5074256;28;20176;-65
2023/08/02 11:00:24;;;;;;;0.00;0.00;;;19.80;99.90;;;;;;5072743;28;20260;-65
2023/08/02 11:02:50;;;;;;;0.00;0.00;;;19.70;99.90;;;;;;5074106;28;20462;-65
2023/08/02 11:05:36;;;;;;;0.00;0.00;;;19.70;99.90;;;;;;5073946;28;20172;-65
2023/08/02 11:08:02;;;;;;;0.00;0.00;;;19.80;99.90;;;;;;5073869;28;20200;-65
2023/08/02 11:10:28;;;;;;;0.00;0.00;;;19.90;99.90;;;;;;5087522;28;20585;-65
2023/08/02 11:12:55;;;;;;;0.00;0.00;;;20.00;99.90;;;;;;5090965;28;20184;-65
2023/08/02 11:15:21;;;;;;;0.00;0.00;;;20.00;99.90;;;;;;5080496;28;20199;-65
2023/08/02 11:17:56;;;;;;;0.00;0.00;;;20.10;99.90;;;;;;5087151;28;20191;-65
2023/08/02 11:20:27;;;;;;;0.00;0.00;;;20.20;99.90;;;;;;5114217;28;20222;-66
2023/08/02 11:22:53;;;;;;;0.00;0.00;;;20.20;99.90;;;;;;5084902;28;20264;-65
2023/08/02 11:25:20;;;;;;;0.00;0.00;;;20.20;99.90;;;;;;5073713;28;20224;-65
2023/08/02 11:27:46;;;;;;;0.00;0.00;;;20.20;99.90;;;;;;5073386;28;20224;-65
2023/08/02 11:30:12;;;;;;;0.00;0.00;;;20.20;99.90;;;;;;5073451;28;20176;-65
2023/08/02 11:32:45;;;;;;;0.00;0.00;;;20.20;99.90;;;;;;5073582;28;20181;-65
2023/08/02 11:35:15;;;;;;;0.00;0.00;;;20.20;99.90;;;;;;5073368;28;20173;-65
2023/08/02 11:37:41;;;;;;;0.00;0.00;;;20.30;99.90;;;;;;5073573;28;20666;-65
2023/08/02 11:40:08;;;;;;;0.00;0.00;;;20.40;99.90;;;;;;5080269;28;20243;-65
2023/08/02 11:42:48;;;;;;;0.00;0.00;;;20.50;99.90;;;;;;5093135;28;20207;-65
2023/08/02 11:45:14;;;;;;;0.22;0.22;;;20.60;99.90;;;;;;5093402;28;20175;-65
2023/08/02 11:47:39;;;;;;;0.00;0.00;;;20.60;99.90;;;;;;5093550;28;20554;-65
2023/08/02 11:50:05;;;;;;;0.00;0.00;;;20.60;99.90;;;;;;5093157;28;20176;-65
2023/08/02 11:52:32;;;;;;;0.00;0.00;;;20.70;99.90;;;;;;5093241;28;20275;-65
2023/08/02 11:54:59;;;;;;;0.00;0.00;;;20.80;99.90;;;;;;5093270;28;20519;-65
2023/08/02 11:57:26;;;;;;;0.00;0.00;;;20.70;99.90;;;;;;5093051;28;20198;-65
2023/08/02 11:59:56;;;;;;;0.00;0.00;;;20.70;99.90;;;;;;5092851;28;20212;-65
2023/08/02 12:02:22;;;;;;;0.00;0.00;;;20.60;99.90;;;;;;5092443;28;20581;-65
2023/08/02 12:04:47;;;;;;;0.00;0.00;;;20.60;99.90;;;;;;5091816;28;20180;-66
2023/08/02 12:07:27;;;;;;;0.00;0.00;;;20.50;99.90;;;;;;5092679;28;20647;-65
2023/08/02 12:09:53;;;;;;;0.00;0.00;;;20.50;99.90;;;;;;5105896;28;20179;-64
2023/08/02 12:12:19;;;;;;;0.00;0.00;;;20.40;99.90;;;;;;5092668;28;20187;-64
2023/08/02 12:14:45;;;;;;;0.00;0.00;;;20.50;99.90;;;;;;5092535;28;20180;-67
2023/08/02 12:17:21;;;;;;;0.00;0.00;;;20.60;99.90;;;;;;5092755;28;20187;-66
2023/08/02 12:19:48;;;;;;;0.00;0.00;;;20.70;99.90;;;;;;5091333;28;20226;-65
2023/08/02 12:22:14;;;;;;;0.00;0.00;;;20.80;99.90;;;;;;5084781;28;20189;-66
2023/08/02 12:24:40;;;;;;;0.00;0.00;;;20.80;99.90;;;;;;5090560;28;20184;-66
2023/08/02 12:27:19;;;;;;;0.00;0.00;;;20.80;99.90;;;;;;5092095;28;20187;-66
2023/08/02 12:29:46;;;;;;;0.00;0.00;;;20.90;99.90;;;;;;5091959;28;20614;-66
2023/08/02 12:32:25;;;;;;;0.00;0.00;;;21.10;99.90;;;;;;5092277;28;20176;-65
2023/08/02 12:34:51;;;;;;;0.00;0.00;;;21.20;99.90;;;;;;5092313;28;20612;-65
2023/08/02 12:37:17;;;;;;;0.00;0.00;;;21.40;99.90;;;;;;5091737;28;20172;-65
2023/08/02 12:39:42;;;;;;;0.00;0.00;;;21.40;99.90;;;;;;5088268;28;20204;-65
2023/08/02 12:42:08;;;;;;;0.00;0.00;;;21.40;99.90;;;;;;5071752;28;20287;-65
2023/08/02 12:44:33;;;;;;;0.15;0.15;;;21.30;99.90;;;;;;5078054;28;20180;-65
2023/08/02 12:46:59;;;;;;;0.00;0.00;;;21.30;99.90;;;;;;5091908;28;20663;-65